Terminal Aerodrome Forecast
Issued by NWS

Home | Current Version | Previous Version | Text Only | Print | Product List | Glossary On
Versions: 1 2 3 4 5 6 7 8 9 10 11 12 13 14 15
000
FTUS43 KDTX 172300
TAFMBS
TAF
KMBS 172320Z 1800/1824 18013G20KT P6SM OVC150
     FM180200 23007KT P6SM OVC080
     FM180700 27005KT 6SM -SHRA BKN050 OVC070
     FM181100 31005KT P6SM SCT050=

USA.gov is the U.S. government's official web portal to all federal, state and local government web resources and services.